createdAt,value
2022-12-07T00:02:09.226Z,5.05
2022-12-07T00:04:42.260Z,4.91
2022-12-07T00:07:13.600Z,4.91
2022-12-07T00:09:42.829Z,4.90
2022-12-07T00:12:09.925Z,5.03
2022-12-07T00:14:37.084Z,4.98
2022-12-07T00:17:04.153Z,4.92
2022-12-07T00:19:34.385Z,5.01
2022-12-07T00:22:03.988Z,4.90
2022-12-07T00:24:33.568Z,4.98
2022-12-07T00:27:02.062Z,4.94
2022-12-07T00:29:31.747Z,4.99
2022-12-07T00:31:59.531Z,4.86
2022-12-07T00:34:28.784Z,4.96
2022-12-07T00:36:57.190Z,4.94
2022-12-07T00:39:28.743Z,5.06
2022-12-07T00:41:58.220Z,4.93
2022-12-07T00:44:25.269Z,4.92
2022-12-07T00:46:52.696Z,5.03
2022-12-07T00:49:22.687Z,4.86
2022-12-07T00:51:50.471Z,4.88
2022-12-07T00:54:17.589Z,5.09
2022-12-07T00:56:44.720Z,4.86
2022-12-07T00:59:13.608Z,4.96
2022-12-07T01:01:40.898Z,4.92
2022-12-07T01:04:11.213Z,4.91
2022-12-07T01:06:38.475Z,4.90
2022-12-07T01:09:08.028Z,4.88
2022-12-07T01:11:35.183Z,4.96
2022-12-07T01:14:02.363Z,4.85
2022-12-07T01:16:31.043Z,4.90
2022-12-07T01:18:58.397Z,4.72
2022-12-07T01:21:27.445Z,4.85
2022-12-07T01:23:54.557Z,4.78
2022-12-07T01:26:23.699Z,4.83
2022-12-07T01:28:51.052Z,4.81
2022-12-07T01:31:21.777Z,4.97
2022-12-07T01:33:50.970Z,4.93
2022-12-07T01:36:23.808Z,5.11
2022-12-07T01:38:54.987Z,5.10
2022-12-07T01:41:22.206Z,4.96
2022-12-07T01:44:10.910Z,5.11
2022-12-07T01:46:38.255Z,5.03
2022-12-07T01:49:10.200Z,5.09
2022-12-07T01:51:37.439Z,5.00
2022-12-07T01:54:04.401Z,5.03
2022-12-07T01:56:31.566Z,5.01
2022-12-07T01:58:58.667Z,5.14
2022-12-07T02:01:25.710Z,4.96
2022-12-07T02:03:52.711Z,5.11
2022-12-07T02:06:22.079Z,5.01
2022-12-07T02:08:49.016Z,4.94
2022-12-07T02:11:16.033Z,4.98
2022-12-07T02:13:43.402Z,4.94
2022-12-07T02:16:13.191Z,4.92
2022-12-07T02:18:51.948Z,5.10
2022-12-07T02:21:27.124Z,4.97
2022-12-07T02:24:17.596Z,5.09
2022-12-07T02:26:44.594Z,5.06
2022-12-07T02:29:25.514Z,4.86
2022-12-07T02:32:15.892Z,4.94
2022-12-07T02:34:45.624Z,5.03
2022-12-07T02:37:37.926Z,4.90
2022-12-07T02:40:09.566Z,4.96
2022-12-07T02:42:39.840Z,4.91
2022-12-07T02:45:07.329Z,4.96
2022-12-07T02:47:34.283Z,4.92
2022-12-07T02:50:01.976Z,5.09
2022-12-07T02:52:29.298Z,4.88
2022-12-07T02:54:56.523Z,5.09
2022-12-07T02:57:41.506Z,4.97
2022-12-07T03:00:19.138Z,4.94
2022-12-07T03:02:57.377Z,5.04
2022-12-07T03:05:46.623Z,5.03
2022-12-07T03:08:50.122Z,4.98
2022-12-07T03:11:36.529Z,4.80
2022-12-07T03:14:19.068Z,5.02
2022-12-07T03:16:54.007Z,4.77
2022-12-07T03:19:21.637Z,4.88
2022-12-07T03:21:56.356Z,4.82
2022-12-07T03:24:25.977Z,4.74
2022-12-07T03:26:54.232Z,4.95
2022-12-07T03:29:24.073Z,5.06
2022-12-07T03:32:01.594Z,4.86
2022-12-07T03:34:43.092Z,4.94
2022-12-07T03:37:20.008Z,4.82
2022-12-07T03:40:01.961Z,4.87
2022-12-07T03:42:30.057Z,4.84
2022-12-07T03:44:57.011Z,4.86
2022-12-07T03:47:36.109Z,5.00
2022-12-07T03:50:08.319Z,4.90
2022-12-07T03:52:53.967Z,4.80
2022-12-07T03:55:31.038Z,4.97
2022-12-07T03:58:03.542Z,4.78
2022-12-07T04:00:30.569Z,4.74
2022-12-07T04:02:57.637Z,4.74
2022-12-07T04:05:24.822Z,4.81
2022-12-07T04:07:51.791Z,4.78
2022-12-07T04:10:18.813Z,5.00
2022-12-07T04:12:45.796Z,4.85
2022-12-07T04:15:12.854Z,4.96
2022-12-07T04:17:39.814Z,4.82
2022-12-07T04:20:07.407Z,4.87
2022-12-07T04:22:34.453Z,4.81
2022-12-07T04:25:01.688Z,4.86
2022-12-07T04:27:28.722Z,4.84
2022-12-07T04:29:56.816Z,4.84
2022-12-07T04:32:24.441Z,4.87
2022-12-07T04:34:55.525Z,5.01
2022-12-07T04:37:23.592Z,4.89
2022-12-07T04:39:50.506Z,4.73
2022-12-07T04:42:17.557Z,5.01
2022-12-07T04:44:44.757Z,4.87
2022-12-07T04:47:11.752Z,5.01
2022-12-07T04:49:38.776Z,4.99
2022-12-07T04:52:06.030Z,4.78
2022-12-07T04:54:32.995Z,5.02
2022-12-07T04:57:00.013Z,4.91
2022-12-07T04:59:26.926Z,4.77
2022-12-07T05:01:54.084Z,5.00
2022-12-07T05:04:21.198Z,4.83
2022-12-07T05:06:48.233Z,4.78
2022-12-07T05:09:15.218Z,4.93
2022-12-07T05:11:42.350Z,4.84
2022-12-07T05:14:14.980Z,4.91
2022-12-07T05:16:42.176Z,4.84
2022-12-07T05:19:10.572Z,4.88
2022-12-07T05:21:37.813Z,4.76
2022-12-07T05:24:05.467Z,4.84
2022-12-07T05:26:32.753Z,4.89
2022-12-07T05:28:59.816Z,4.75
2022-12-07T05:31:28.380Z,4.94
2022-12-07T05:33:57.632Z,4.84
2022-12-07T05:36:24.656Z,4.73
2022-12-07T05:38:56.002Z,4.76
2022-12-07T05:41:41.605Z,4.84
2022-12-07T05:44:08.701Z,4.85
2022-12-07T05:46:37.793Z,4.74
2022-12-07T05:49:04.785Z,4.89
2022-12-07T05:51:31.848Z,4.87
2022-12-07T05:53:58.991Z,4.82
2022-12-07T05:57:43.286Z,4.99
2022-12-07T06:00:06.222Z,4.90
2022-12-07T06:02:44.966Z,4.87
2022-12-07T06:05:41.035Z,4.67
2022-12-07T06:08:11.457Z,4.73
2022-12-07T06:11:11.694Z,4.83
2022-12-07T06:13:43.746Z,4.89
2022-12-07T06:16:14.309Z,4.76
2022-12-07T06:18:41.480Z,4.79
2022-12-07T06:21:11.092Z,4.64
2022-12-07T06:23:45.693Z,4.74
2022-12-07T06:26:15.927Z,4.65
2022-12-07T06:28:43.069Z,4.73
2022-12-07T06:31:13.838Z,4.71
2022-12-07T06:33:47.501Z,4.79
2022-12-07T06:36:14.758Z,4.73
2022-12-07T06:38:43.007Z,4.71
2022-12-07T06:41:59.192Z,4.84
2022-12-07T06:44:03.591Z,4.73
2022-12-07T06:46:30.948Z,4.56
2022-12-07T06:49:06.008Z,4.90
2022-12-07T06:51:58.107Z,4.71
2022-12-07T06:54:33.504Z,4.58
2022-12-07T06:57:06.570Z,4.65
2022-12-07T06:59:48.301Z,4.62
2022-12-07T07:02:24.779Z,4.67
2022-12-07T07:05:12.340Z,4.71
2022-12-07T07:10:50.035Z,4.60
2022-12-07T07:13:37.653Z,4.77
2022-12-07T07:19:48.619Z,4.67
2022-12-07T07:22:33.295Z,4.60
2022-12-07T07:26:07.566Z,4.69
2022-12-07T07:28:48.610Z,4.59
2022-12-07T07:31:21.653Z,4.60
2022-12-07T07:33:55.561Z,4.60
2022-12-07T07:36:22.778Z,4.79
2022-12-07T07:38:50.164Z,4.92
2022-12-07T07:41:28.436Z,4.66
2022-12-07T07:47:31.942Z,4.68
2022-12-07T07:50:08.075Z,4.75
2022-12-07T07:52:36.225Z,4.82
2022-12-07T07:55:16.206Z,4.70
2022-12-07T07:57:56.053Z,4.74
2022-12-07T08:00:31.953Z,4.69
2022-12-07T08:03:15.452Z,4.75
2022-12-07T08:06:04.484Z,4.81
2022-12-07T08:09:05.016Z,4.67
2022-12-07T08:12:12.657Z,4.71
2022-12-07T08:15:16.312Z,4.79
2022-12-07T08:18:24.801Z,4.69
2022-12-07T08:27:53.259Z,4.91
2022-12-07T08:30:38.187Z,4.86
2022-12-07T08:33:29.772Z,4.83
2022-12-07T08:43:40.191Z,4.91
2022-12-07T08:46:41.219Z,4.95
2022-12-07T08:49:43.968Z,5.07
2022-12-07T08:52:49.931Z,5.15
2022-12-07T08:55:31.312Z,5.03
2022-12-07T08:58:14.826Z,5.19
2022-12-07T09:00:42.202Z,5.07
2022-12-07T09:03:19.652Z,5.04
2022-12-07T09:05:53.728Z,5.08
2022-12-07T09:08:51.980Z,5.07
2022-12-07T09:11:28.788Z,5.09
2022-12-07T09:14:19.387Z,5.01
2022-12-07T09:16:56.149Z,5.11
2022-12-07T09:19:31.400Z,5.10
2022-12-07T09:22:16.309Z,4.98
2022-12-07T09:24:57.908Z,5.10
2022-12-07T09:27:47.387Z,5.24
2022-12-07T09:30:52.684Z,5.23
2022-12-07T09:33:37.340Z,5.12
2022-12-07T09:36:11.444Z,5.04
2022-12-07T09:39:15.804Z,5.09
2022-12-07T09:41:51.937Z,5.16
2022-12-07T09:44:34.466Z,5.13
2022-12-07T09:47:20.703Z,5.18
2022-12-07T09:49:55.265Z,5.16
2022-12-07T09:52:41.621Z,5.03
2022-12-07T09:55:38.461Z,4.93
2022-12-07T09:58:21.011Z,5.06
2022-12-07T10:00:53.183Z,4.98
2022-12-07T10:03:25.639Z,5.16
2022-12-07T10:07:11.805Z,5.32
2022-12-07T10:09:26.144Z,5.04
2022-12-07T10:13:48.254Z,5.16
2022-12-07T10:15:23.882Z,5.24
2022-12-07T10:19:09.752Z,5.08
2022-12-07T10:21:20.801Z,5.17
2022-12-07T10:24:30.664Z,5.17
2022-12-07T10:27:39.752Z,5.10
2022-12-07T10:30:47.180Z,5.44
2022-12-07T10:33:42.121Z,5.38
2022-12-07T10:36:19.882Z,5.42
2022-12-07T10:38:52.494Z,5.21
2022-12-07T10:41:20.321Z,5.20
2022-12-07T10:43:55.655Z,5.44
2022-12-07T10:51:10.096Z,5.11
2022-12-07T10:57:51.127Z,5.42
2022-12-07T11:01:25.621Z,5.14
2022-12-07T11:04:49.792Z,5.46
2022-12-07T11:08:29.654Z,5.42
2022-12-07T11:15:44.378Z,5.25
2022-12-07T11:18:56.246Z,5.45
2022-12-07T11:21:44.152Z,5.27
2022-12-07T11:25:27.146Z,5.50
2022-12-07T11:33:12.812Z,5.56
2022-12-07T11:36:10.105Z,5.60
2022-12-07T11:44:56.352Z,5.71
2022-12-07T11:47:40.179Z,5.47
2022-12-07T11:50:40.798Z,5.60
2022-12-07T11:53:10.496Z,5.74
2022-12-07T11:55:55.604Z,5.79
2022-12-07T11:58:24.702Z,5.75
2022-12-07T12:00:52.026Z,5.60
2022-12-07T12:03:31.499Z,5.72
2022-12-07T12:05:58.549Z,5.56
2022-12-07T12:15:11.079Z,5.83
2022-12-07T12:17:40.499Z,5.94
2022-12-07T12:20:25.434Z,6.00
2022-12-07T12:22:58.087Z,6.02
2022-12-07T12:25:28.516Z,5.89
2022-12-07T12:27:57.374Z,5.91
2022-12-07T12:30:27.579Z,6.04
2022-12-07T12:32:55.709Z,6.13
2022-12-07T12:35:29.127Z,6.16
2022-12-07T12:37:56.336Z,6.02
2022-12-07T12:40:23.258Z,6.35
2022-12-07T12:43:02.926Z,6.17
2022-12-07T12:45:31.708Z,6.25
2022-12-07T12:48:05.519Z,6.43
2022-12-07T12:50:39.646Z,6.26
2022-12-07T12:53:24.440Z,6.35
2022-12-07T12:55:55.897Z,6.48
2022-12-07T12:58:29.627Z,6.57
2022-12-07T13:01:15.196Z,6.39
2022-12-07T13:03:54.194Z,6.39
2022-12-07T13:06:31.575Z,6.50
2022-12-07T13:08:59.659Z,6.51
2022-12-07T13:11:30.689Z,6.67
2022-12-07T13:14:38.655Z,6.88
2022-12-07T13:17:05.945Z,6.84
2022-12-07T13:19:42.266Z,6.91
2022-12-07T13:22:40.091Z,7.00
2022-12-07T13:25:48.848Z,7.01
2022-12-07T13:28:22.637Z,6.82
2022-12-07T13:31:14.819Z,6.94
2022-12-07T13:33:44.243Z,6.92
2022-12-07T13:36:23.403Z,6.92
2022-12-07T13:38:52.168Z,7.07
2022-12-07T13:41:20.597Z,7.19
2022-12-07T13:44:02.658Z,7.15
2022-12-07T13:46:46.183Z,7.14
2022-12-07T13:50:42.874Z,7.04
2022-12-07T13:53:48.807Z,7.04
2022-12-07T13:56:53.308Z,7.03
2022-12-07T13:59:48.627Z,7.00
2022-12-07T14:07:21.421Z,7.03
2022-12-07T14:11:21.554Z,6.93
2022-12-07T14:13:48.678Z,6.81
2022-12-07T14:16:51.548Z,7.05
2022-12-07T14:21:45.798Z,7.03
2022-12-07T14:26:21.942Z,6.86
2022-12-07T14:29:34.656Z,6.69
2022-12-07T14:34:17.123Z,6.80
2022-12-07T14:35:58.531Z,6.57
2022-12-07T14:39:13.083Z,6.63
2022-12-07T14:55:34.901Z,6.29
2022-12-07T14:58:19.390Z,6.35
2022-12-07T15:01:01.420Z,6.29
2022-12-07T15:03:32.686Z,6.32
2022-12-07T15:10:16.271Z,6.24
2022-12-07T15:12:29.889Z,6.29
2022-12-07T15:15:02.965Z,5.97
2022-12-07T15:17:37.036Z,6.22
2022-12-07T15:20:32.271Z,6.05
2022-12-07T15:23:58.381Z,5.93
2022-12-07T15:26:36.574Z,6.01
2022-12-07T15:32:34.673Z,5.86
2022-12-07T15:35:02.357Z,5.98
2022-12-07T15:37:29.487Z,6.02
2022-12-07T15:39:56.502Z,5.88
2022-12-07T15:42:23.471Z,5.88
2022-12-07T15:45:05.998Z,5.81
2022-12-07T15:48:02.373Z,5.89
2022-12-07T15:50:24.608Z,5.84
2022-12-07T15:52:51.594Z,5.93
2022-12-07T15:55:18.809Z,5.83
2022-12-07T15:57:45.832Z,5.81
2022-12-07T16:00:17.614Z,5.75
2022-12-07T16:02:44.773Z,5.69
2022-12-07T16:05:11.934Z,5.69
2022-12-07T16:08:10.117Z,5.72
2022-12-07T16:10:54.802Z,5.74
2022-12-07T16:13:42.430Z,5.90
2022-12-07T16:20:01.713Z,5.68
2022-12-07T16:22:32.372Z,5.74
2022-12-07T16:25:03.799Z,5.69
2022-12-07T16:27:44.347Z,5.61
2022-12-07T16:30:18.101Z,5.79
2022-12-07T16:32:50.673Z,5.73
2022-12-07T16:35:25.940Z,5.85
2022-12-07T16:37:55.526Z,5.76
2022-12-07T16:40:31.191Z,5.73
2022-12-07T16:43:12.071Z,5.83
2022-12-07T16:45:59.613Z,5.78
2022-12-07T16:49:01.452Z,5.71
2022-12-07T16:51:27.087Z,5.70
2022-12-07T16:53:59.000Z,5.73
2022-12-07T16:56:35.967Z,5.85
2022-12-07T17:08:40.888Z,5.68
2022-12-07T17:15:22.162Z,5.66
2022-12-07T17:18:28.509Z,5.60
2022-12-07T17:21:24.455Z,5.72
2022-12-07T17:32:28.912Z,5.62
2022-12-07T17:34:56.101Z,5.62
2022-12-07T17:37:26.951Z,5.54
2022-12-07T17:40:02.907Z,5.60
2022-12-07T17:42:38.408Z,5.69
2022-12-07T17:48:43.109Z,5.44
2022-12-07T18:05:15.406Z,5.64
2022-12-07T18:12:16.446Z,5.57
2022-12-07T19:22:34.014Z,5.09
2022-12-07T19:25:19.611Z,5.10
2022-12-07T19:28:11.146Z,5.24
2022-12-07T19:31:00.389Z,5.08
2022-12-07T19:41:09.468Z,5.21
2022-12-07T19:44:06.652Z,5.30
2022-12-07T19:46:34.274Z,5.11
2022-12-07T19:49:07.505Z,5.10
2022-12-07T19:51:36.519Z,5.14
2022-12-07T20:10:34.975Z,5.12
2022-12-07T20:13:45.270Z,4.97
2022-12-07T20:16:55.247Z,5.00
2022-12-07T20:19:24.601Z,4.97
2022-12-07T20:22:12.185Z,5.06
2022-12-07T20:24:47.839Z,4.98
2022-12-07T20:27:18.123Z,5.04
2022-12-07T20:29:51.498Z,4.98
2022-12-07T20:32:22.636Z,5.03
2022-12-07T20:34:57.949Z,5.03
2022-12-07T20:38:43.008Z,5.11
2022-12-07T20:40:30.524Z,5.12
2022-12-07T20:43:23.518Z,5.04
2022-12-07T20:45:53.033Z,4.92
2022-12-07T20:48:34.628Z,4.99
2022-12-07T20:51:13.489Z,4.92
2022-12-07T20:53:45.766Z,4.93
2022-12-07T20:56:28.097Z,5.06
2022-12-07T20:59:19.314Z,4.96
2022-12-07T21:01:51.768Z,4.98
2022-12-07T21:04:30.811Z,5.00
2022-12-07T23:42:12.838Z,4.65
